sensor_id;sensor_type;location;lat;lon;timestamp;pressure;altitude;pressure_sealevel;temperature;humidity
51603;BME280;37954;51.980;5.850;2022-12-07T00:00:10;101440.47;;;5.01;92.10
51603;BME280;37954;51.980;5.850;2022-12-07T00:04:22;101434.66;;;4.89;91.91
51603;BME280;37954;51.980;5.850;2022-12-07T00:08:35;101439.50;;;4.78;91.73
51603;BME280;37954;51.980;5.850;2022-12-07T00:12:46;101436.00;;;4.69;91.41
51603;BME280;37954;51.980;5.850;2022-12-07T00:16:58;101432.72;;;4.59;90.84
51603;BME280;37954;51.980;5.850;2022-12-07T00:21:23;101423.88;;;4.50;91.52
51603;BME280;37954;51.980;5.850;2022-12-07T00:25:35;101431.22;;;4.40;91.38
51603;BME280;37954;51.980;5.850;2022-12-07T00:29:47;101423.72;;;4.36;91.16
51603;BME280;37954;51.980;5.850;2022-12-07T00:33:59;101420.91;;;4.29;91.55
51603;BME280;37954;51.980;5.850;2022-12-07T00:38:11;101416.59;;;4.28;91.15
51603;BME280;37954;51.980;5.850;2022-12-07T00:42:22;101411.09;;;4.22;91.04
51603;BME280;37954;51.980;5.850;2022-12-07T00:46:34;101411.75;;;4.24;91.60
51603;BME280;37954;51.980;5.850;2022-12-07T00:50:46;101414.25;;;4.25;91.26
51603;BME280;37954;51.980;5.850;2022-12-07T00:54:57;101385.34;;;4.14;91.32
51603;BME280;37954;51.980;5.850;2022-12-07T00:59:12;101404.59;;;4.24;91.01
51603;BME280;37954;51.980;5.850;2022-12-07T01:03:24;101402.59;;;4.18;91.54
51603;BME280;37954;51.980;5.850;2022-12-07T01:07:35;101397.28;;;4.10;91.35
51603;BME280;37954;51.980;5.850;2022-12-07T01:11:47;101400.78;;;4.10;91.26
51603;BME280;37954;51.980;5.850;2022-12-07T01:16:00;101406.75;;;4.04;90.97
51603;BME280;37954;51.980;5.850;2022-12-07T01:20:13;101409.25;;;3.98;91.21
51603;BME280;37954;51.980;5.850;2022-12-07T01:24:25;101403.75;;;3.91;90.68
51603;BME280;37954;51.980;5.850;2022-12-07T01:28:36;101407.56;;;3.89;91.05
51603;BME280;37954;51.980;5.850;2022-12-07T01:32:48;101420.00;;;3.88;91.33
51603;BME280;37954;51.980;5.850;2022-12-07T01:36:59;101403.88;;;3.81;91.13
51603;BME280;37954;51.980;5.850;2022-12-07T01:41:12;101403.88;;;3.73;91.05
51603;BME280;37954;51.980;5.850;2022-12-07T01:49:44;101403.03;;;3.73;91.28
51603;BME280;37954;51.980;5.850;2022-12-07T01:53:58;101403.19;;;3.71;91.40
51603;BME280;37954;51.980;5.850;2022-12-07T01:58:11;101400.03;;;3.68;91.46
51603;BME280;37954;51.980;5.850;2022-12-07T02:02:27;101398.53;;;3.65;91.32
51603;BME280;37954;51.980;5.850;2022-12-07T02:06:43;101397.03;;;3.63;91.62
51603;BME280;37954;51.980;5.850;2022-12-07T02:10:55;101393.19;;;3.57;91.28
51603;BME280;37954;51.980;5.850;2022-12-07T02:15:09;101397.38;;;3.60;91.23
51603;BME280;37954;51.980;5.850;2022-12-07T02:29:00;101393.81;;;3.43;91.53
51603;BME280;37954;51.980;5.850;2022-12-07T02:33:26;101391.97;;;3.35;91.69
51603;BME280;37954;51.980;5.850;2022-12-07T02:42:09;101407.22;;;3.33;91.40
51603;BME280;37954;51.980;5.850;2022-12-07T02:46:25;101388.94;;;3.30;91.74
51603;BME280;37954;51.980;5.850;2022-12-07T02:50:38;101396.59;;;3.33;91.97
51603;BME280;37954;51.980;5.850;2022-12-07T02:54:49;101384.81;;;3.28;91.95
51603;BME280;37954;51.980;5.850;2022-12-07T03:03:37;101396.59;;;3.33;92.18
51603;BME280;37954;51.980;5.850;2022-12-07T03:12:20;101401.47;;;3.46;92.17
51603;BME280;37954;51.980;5.850;2022-12-07T03:16:39;101400.97;;;3.50;92.17
51603;BME280;37954;51.980;5.850;2022-12-07T03:20:55;101399.31;;;3.49;92.51
51603;BME280;37954;51.980;5.850;2022-12-07T03:25:10;101390.38;;;3.59;92.47
51603;BME280;37954;51.980;5.850;2022-12-07T03:29:28;101391.53;;;3.64;92.75
51603;BME280;37954;51.980;5.850;2022-12-07T03:34:08;101392.94;;;3.84;93.00
51603;BME280;37954;51.980;5.850;2022-12-07T03:42:37;101378.00;;;3.92;92.93
51603;BME280;37954;51.980;5.850;2022-12-07T03:47:01;101377.16;;;3.99;93.09
51603;BME280;37954;51.980;5.850;2022-12-07T03:51:48;101385.47;;;4.04;93.07
51603;BME280;37954;51.980;5.850;2022-12-07T03:56:01;101384.50;;;4.05;93.35
51603;BME280;37954;51.980;5.850;2022-12-07T04:00:13;101382.31;;;4.01;93.51
51603;BME280;37954;51.980;5.850;2022-12-07T04:04:25;101375.69;;;3.97;93.03
51603;BME280;37954;51.980;5.850;2022-12-07T04:08:36;101375.19;;;3.93;93.11
51603;BME280;37954;51.980;5.850;2022-12-07T04:12:48;101374.03;;;3.96;93.01
51603;BME280;37954;51.980;5.850;2022-12-07T04:16:59;101368.72;;;3.96;92.95
51603;BME280;37954;51.980;5.850;2022-12-07T04:21:11;101370.19;;;3.90;92.55
51603;BME280;37954;51.980;5.850;2022-12-07T04:25:23;101347.09;;;3.74;92.99
51603;BME280;37954;51.980;5.850;2022-12-07T04:29:34;101361.03;;;3.84;92.78
51603;BME280;37954;51.980;5.850;2022-12-07T04:33:46;101367.50;;;3.82;93.04
51603;BME280;37954;51.980;5.850;2022-12-07T04:37:57;101384.97;;;3.93;92.65
51603;BME280;37954;51.980;5.850;2022-12-07T04:42:09;101378.50;;;3.95;92.53
51603;BME280;37954;51.980;5.850;2022-12-07T04:46:20;101381.00;;;3.97;93.25
51603;BME280;37954;51.980;5.850;2022-12-07T04:50:32;101367.34;;;4.00;92.63
51603;BME280;37954;51.980;5.850;2022-12-07T04:54:43;101362.91;;;4.08;92.77
51603;BME280;37954;51.980;5.850;2022-12-07T04:58:55;101368.72;;;4.12;92.90
51603;BME280;37954;51.980;5.850;2022-12-07T05:03:07;101364.06;;;4.06;92.93
51603;BME280;37954;51.980;5.850;2022-12-07T05:07:18;101354.59;;;3.95;92.78
51603;BME280;37954;51.980;5.850;2022-12-07T05:11:30;101350.25;;;3.86;92.79
51603;BME280;37954;51.980;5.850;2022-12-07T05:15:51;101353.75;;;3.78;92.08
51603;BME280;37954;51.980;5.850;2022-12-07T05:20:03;101346.06;;;3.67;92.12
51603;BME280;37954;51.980;5.850;2022-12-07T05:24:16;101357.19;;;3.63;92.15
51603;BME280;37954;51.980;5.850;2022-12-07T05:28:28;101354.50;;;3.55;92.36
51603;BME280;37954;51.980;5.850;2022-12-07T05:32:39;101344.53;;;3.48;91.99
51603;BME280;37954;51.980;5.850;2022-12-07T05:36:50;101355.84;;;3.59;92.42
51603;BME280;37954;51.980;5.850;2022-12-07T05:41:03;101360.38;;;3.74;92.64
51603;BME280;37954;51.980;5.850;2022-12-07T05:45:15;101354.41;;;3.80;92.67
51603;BME280;37954;51.980;5.850;2022-12-07T05:49:27;101350.25;;;3.78;92.98
51603;BME280;37954;51.980;5.850;2022-12-07T05:53:38;101348.56;;;3.69;92.77
51603;BME280;37954;51.980;5.850;2022-12-07T05:57:50;101353.34;;;3.57;92.63
51603;BME280;37954;51.980;5.850;2022-12-07T06:02:20;101349.34;;;3.45;92.27
51603;BME280;37954;51.980;5.850;2022-12-07T06:06:32;101346.97;;;3.34;92.12
51603;BME280;37954;51.980;5.850;2022-12-07T06:10:43;101347.13;;;3.24;92.07
51603;BME280;37954;51.980;5.850;2022-12-07T06:14:55;101334.47;;;3.10;92.14
51603;BME280;37954;51.980;5.850;2022-12-07T06:19:06;101348.56;;;3.10;91.87
51603;BME280;37954;51.980;5.850;2022-12-07T06:23:18;101344.88;;;3.03;91.50
51603;BME280;37954;51.980;5.850;2022-12-07T06:27:29;101352.63;;;2.97;91.69
51603;BME280;37954;51.980;5.850;2022-12-07T06:31:41;101357.25;;;2.95;91.73
51603;BME280;37954;51.980;5.850;2022-12-07T06:35:53;101355.63;;;2.94;91.59
51603;BME280;37954;51.980;5.850;2022-12-07T06:40:05;101355.63;;;2.94;91.45
51603;BME280;37954;51.980;5.850;2022-12-07T06:44:17;101352.13;;;2.93;91.87
51603;BME280;37954;51.980;5.850;2022-12-07T06:48:29;101354.13;;;2.91;91.78
51603;BME280;37954;51.980;5.850;2022-12-07T06:52:40;101355.44;;;2.95;91.98
51603;BME280;37954;51.980;5.850;2022-12-07T06:56:52;101351.47;;;2.99;92.17
51603;BME280;37954;51.980;5.850;2022-12-07T07:01:11;101356.84;;;3.07;92.48
51603;BME280;37954;51.980;5.850;2022-12-07T07:05:23;101366.19;;;3.20;92.64
51603;BME280;37954;51.980;5.850;2022-12-07T07:09:34;101360.72;;;3.29;92.84
51603;BME280;37954;51.980;5.850;2022-12-07T07:13:46;101362.59;;;3.37;93.39
51603;BME280;37954;51.980;5.850;2022-12-07T07:17:58;101359.25;;;3.35;93.32
51603;BME280;37954;51.980;5.850;2022-12-07T07:22:17;101361.75;;;3.28;93.21
51603;BME280;37954;51.980;5.850;2022-12-07T07:26:29;101363.38;;;3.21;93.12
51603;BME280;37954;51.980;5.850;2022-12-07T07:30:41;101364.16;;;3.13;92.88
51603;BME280;37954;51.980;5.850;2022-12-07T07:34:52;101367.47;;;3.07;93.12
51603;BME280;37954;51.980;5.850;2022-12-07T07:39:04;101376.56;;;3.05;92.81
51603;BME280;37954;51.980;5.850;2022-12-07T07:43:16;101366.41;;;3.00;92.77
51603;BME280;37954;51.980;5.850;2022-12-07T07:47:27;101364.44;;;3.02;92.85
51603;BME280;37954;51.980;5.850;2022-12-07T07:51:40;101368.75;;;3.03;92.90
51603;BME280;37954;51.980;5.850;2022-12-07T07:55:54;101373.25;;;3.03;92.52
51603;BME280;37954;51.980;5.850;2022-12-07T08:00:14;101375.59;;;3.06;92.98
51603;BME280;37954;51.980;5.850;2022-12-07T08:04:26;101371.25;;;3.05;93.19
51603;BME280;37954;51.980;5.850;2022-12-07T08:08:37;101368.81;;;3.11;92.86
51603;BME280;37954;51.980;5.850;2022-12-07T08:12:49;101375.28;;;3.17;92.72
51603;BME280;37954;51.980;5.850;2022-12-07T08:17:19;101372.84;;;3.32;93.13
51603;BME280;37954;51.980;5.850;2022-12-07T08:21:31;101391.69;;;3.55;93.46
51603;BME280;37954;51.980;5.850;2022-12-07T08:25:42;101387.78;;;3.83;93.86
51603;BME280;37954;51.980;5.850;2022-12-07T08:29:54;101395.44;;;4.02;94.25
51603;BME280;37954;51.980;5.850;2022-12-07T08:34:05;101398.47;;;4.15;94.14
51603;BME280;37954;51.980;5.850;2022-12-07T08:38:17;101389.84;;;4.30;93.80
51603;BME280;37954;51.980;5.850;2022-12-07T08:42:28;101385.66;;;4.43;94.51
51603;BME280;37954;51.980;5.850;2022-12-07T08:46:54;101388.81;;;4.55;93.90
51603;BME280;37954;51.980;5.850;2022-12-07T08:51:08;101390.31;;;4.58;94.39
51603;BME280;37954;51.980;5.850;2022-12-07T08:55:19;101381.66;;;4.64;93.88
51603;BME280;37954;51.980;5.850;2022-12-07T08:59:33;101388.41;;;4.90;94.49
51603;BME280;37954;51.980;5.850;2022-12-07T09:03:45;101382.75;;;5.02;94.10
51603;BME280;37954;51.980;5.850;2022-12-07T09:08:00;101392.50;;;5.09;93.99
51603;BME280;37954;51.980;5.850;2022-12-07T09:12:12;101388.19;;;5.08;94.10
51603;BME280;37954;51.980;5.850;2022-12-07T09:16:24;101393.97;;;5.20;93.87
51603;BME280;37954;51.980;5.850;2022-12-07T09:20:35;101396.22;;;5.47;93.46
51603;BME280;37954;51.980;5.850;2022-12-07T09:24:47;101398.84;;;5.86;93.28
51603;BME280;37954;51.980;5.850;2022-12-07T09:28:58;101393.56;;;6.24;92.79
51603;BME280;37954;51.980;5.850;2022-12-07T09:33:10;101380.13;;;6.40;91.86
51603;BME280;37954;51.980;5.850;2022-12-07T09:37:21;101388.88;;;6.49;91.55
51603;BME280;37954;51.980;5.850;2022-12-07T09:41:37;101386.97;;;6.57;90.97
51603;BME280;37954;51.980;5.850;2022-12-07T09:45:51;101389.50;;;6.74;89.81
51603;BME280;37954;51.980;5.850;2022-12-07T09:50:13;101385.72;;;6.97;88.55
51603;BME280;37954;51.980;5.850;2022-12-07T09:54:25;101393.19;;;7.17;88.75
51603;BME280;37954;51.980;5.850;2022-12-07T09:58:37;101385.00;;;7.04;87.52
51603;BME280;37954;51.980;5.850;2022-12-07T10:07:03;101373.72;;;7.38;87.40
51603;BME280;37954;51.980;5.850;2022-12-07T10:11:15;101370.75;;;7.47;88.66
51603;BME280;37954;51.980;5.850;2022-12-07T10:15:56;101372.81;;;7.30;88.77
51603;BME280;37954;51.980;5.850;2022-12-07T10:20:25;101363.16;;;7.15;87.57
51603;BME280;37954;51.980;5.850;2022-12-07T10:24:39;101359.66;;;7.14;86.75
51603;BME280;37954;51.980;5.850;2022-12-07T10:28:52;101354.94;;;7.31;85.91
51603;BME280;37954;51.980;5.850;2022-12-07T10:37:48;101350.91;;;7.06;84.75
51603;BME280;37954;51.980;5.850;2022-12-07T10:42:01;101348.03;;;7.22;84.54
51603;BME280;37954;51.980;5.850;2022-12-07T10:51:00;101336.53;;;7.57;84.55
51603;BME280;37954;51.980;5.850;2022-12-07T10:59:53;101332.28;;;8.06;82.32
51603;BME280;37954;51.980;5.850;2022-12-07T11:22:14;101311.47;;;7.58;81.07
51603;BME280;37954;51.980;5.850;2022-12-07T11:30:53;101299.06;;;7.72;81.51
51603;BME280;37954;51.980;5.850;2022-12-07T11:44:07;101289.63;;;7.55;80.02
51603;BME280;37954;51.980;5.850;2022-12-07T11:48:34;101290.63;;;7.54;80.10
51603;BME280;37954;51.980;5.850;2022-12-07T11:57:26;101286.59;;;7.79;80.25
51603;BME280;37954;51.980;5.850;2022-12-07T12:05:50;101273.00;;;7.81;79.63
51603;BME280;37954;51.980;5.850;2022-12-07T12:10:27;101267.78;;;7.73;79.03
51603;BME280;37954;51.980;5.850;2022-12-07T12:14:53;101270.16;;;7.61;79.27
51603;BME280;37954;51.980;5.850;2022-12-07T12:19:22;101255.50;;;7.36;79.04
51603;BME280;37954;51.980;5.850;2022-12-07T12:23:45;101264.38;;;7.21;79.36
51603;BME280;37954;51.980;5.850;2022-12-07T12:27:59;101255.00;;;7.11;79.54
51603;BME280;37954;51.980;5.850;2022-12-07T12:32:17;101256.94;;;7.17;79.79
51603;BME280;37954;51.980;5.850;2022-12-07T12:40:42;101252.31;;;7.47;80.04
51603;BME280;37954;51.980;5.850;2022-12-07T12:49:38;101226.41;;;7.68;79.19
51603;BME280;37954;51.980;5.850;2022-12-07T12:53:50;101231.75;;;7.68;79.29
51603;BME280;37954;51.980;5.850;2022-12-07T13:02:31;101233.03;;;7.51;78.92
51603;BME280;37954;51.980;5.850;2022-12-07T13:06:43;101208.91;;;7.45;79.32
51603;BME280;37954;51.980;5.850;2022-12-07T13:11:16;101204.06;;;7.33;78.93
51603;BME280;37954;51.980;5.850;2022-12-07T13:15:38;101216.03;;;7.38;78.94
51603;BME280;37954;51.980;5.850;2022-12-07T13:19:54;101203.78;;;7.43;79.38
51603;BME280;37954;51.980;5.850;2022-12-07T13:24:07;101201.22;;;7.56;79.46
51603;BME280;37954;51.980;5.850;2022-12-07T13:28:22;101185.84;;;7.65;79.95
51603;BME280;37954;51.980;5.850;2022-12-07T13:32:38;101189.69;;;7.77;79.88
51603;BME280;37954;51.980;5.850;2022-12-07T13:36:50;101180.03;;;7.83;79.93
51603;BME280;37954;51.980;5.850;2022-12-07T13:45:30;101173.22;;;7.80;78.50
51603;BME280;37954;51.980;5.850;2022-12-07T13:50:00;101169.78;;;7.86;77.91
51603;BME280;37954;51.980;5.850;2022-12-07T13:54:13;101163.06;;;7.97;78.18
51603;BME280;37954;51.980;5.850;2022-12-07T13:58:27;101162.13;;;8.11;78.52
51603;BME280;37954;51.980;5.850;2022-12-07T14:07:26;101138.25;;;8.10;78.03
51603;BME280;37954;51.980;5.850;2022-12-07T14:11:38;101146.59;;;8.00;77.62
51603;BME280;37954;51.980;5.850;2022-12-07T14:15:51;101159.72;;;7.88;77.72
51603;BME280;37954;51.980;5.850;2022-12-07T14:20:03;101155.69;;;7.71;77.42
51603;BME280;37954;51.980;5.850;2022-12-07T14:24:18;101155.97;;;7.55;77.75
51603;BME280;37954;51.980;5.850;2022-12-07T14:28:32;101144.78;;;7.23;77.52
51603;BME280;37954;51.980;5.850;2022-12-07T14:32:47;101139.31;;;7.10;77.74
51603;BME280;37954;51.980;5.850;2022-12-07T14:37:00;101134.22;;;6.94;78.48
51603;BME280;37954;51.980;5.850;2022-12-07T14:41:18;101141.97;;;6.89;78.89
51603;BME280;37954;51.980;5.850;2022-12-07T14:45:52;101142.84;;;6.96;78.85
51603;BME280;37954;51.980;5.850;2022-12-07T14:50:04;101143.63;;;6.90;78.90
51603;BME280;37954;51.980;5.850;2022-12-07T14:54:19;101137.00;;;6.86;78.74
51603;BME280;37954;51.980;5.850;2022-12-07T14:58:31;101134.63;;;6.91;78.82
51603;BME280;37954;51.980;5.850;2022-12-07T15:02:45;101128.25;;;6.92;78.84
51603;BME280;37954;51.980;5.850;2022-12-07T15:06:58;101125.97;;;6.89;79.21
51603;BME280;37954;51.980;5.850;2022-12-07T15:11:14;101116.03;;;6.83;78.76
51603;BME280;37954;51.980;5.850;2022-12-07T15:15:26;101123.41;;;6.81;79.25
51603;BME280;37954;51.980;5.850;2022-12-07T15:19:42;101126.06;;;6.81;79.49
51603;BME280;37954;51.980;5.850;2022-12-07T15:23:54;101135.53;;;6.83;79.27
51603;BME280;37954;51.980;5.850;2022-12-07T15:28:05;101102.91;;;6.67;79.66
51603;BME280;37954;51.980;5.850;2022-12-07T15:32:17;101112.13;;;6.64;79.86
51603;BME280;37954;51.980;5.850;2022-12-07T15:36:31;101097.06;;;6.56;79.49
51603;BME280;37954;51.980;5.850;2022-12-07T15:40:46;101109.19;;;6.59;79.45
51603;BME280;37954;51.980;5.850;2022-12-07T15:44:58;101097.53;;;6.45;80.04
51603;BME280;37954;51.980;5.850;2022-12-07T15:49:18;101098.09;;;6.41;80.33
51603;BME280;37954;51.980;5.850;2022-12-07T15:53:30;101096.19;;;6.35;80.28
51603;BME280;37954;51.980;5.850;2022-12-07T15:57:41;101078.41;;;6.42;80.81
51603;BME280;37954;51.980;5.850;2022-12-07T16:01:53;101078.41;;;6.42;80.93
51603;BME280;37954;51.980;5.850;2022-12-07T16:06:05;101079.22;;;6.42;81.66
51603;BME280;37954;51.980;5.850;2022-12-07T16:10:17;101091.19;;;6.46;81.20
51603;BME280;37954;51.980;5.850;2022-12-07T16:14:29;101084.13;;;6.39;81.21
51603;BME280;37954;51.980;5.850;2022-12-07T16:18:44;101074.47;;;6.38;81.78
51603;BME280;37954;51.980;5.850;2022-12-07T16:22:56;101077.69;;;6.33;81.46
51603;BME280;37954;51.980;5.850;2022-12-07T16:27:08;101072.91;;;6.28;81.53
51603;BME280;37954;51.980;5.850;2022-12-07T16:31:22;101072.22;;;6.20;81.39
51603;BME280;37954;51.980;5.850;2022-12-07T16:35:34;101074.22;;;6.18;81.47
51603;BME280;37954;51.980;5.850;2022-12-07T16:39:49;101076.81;;;6.11;81.71
51603;BME280;37954;51.980;5.850;2022-12-07T16:44:06;101069.00;;;5.95;81.94
51603;BME280;37954;51.980;5.850;2022-12-07T16:48:18;101062.66;;;5.96;81.77
51603;BME280;37954;51.980;5.850;2022-12-07T16:52:30;101064.41;;;5.89;81.79
51603;BME280;37954;51.980;5.850;2022-12-07T16:56:42;101049.69;;;5.78;81.89
51603;BME280;37954;51.980;5.850;2022-12-07T17:00:54;101046.53;;;5.75;81.73
51603;BME280;37954;51.980;5.850;2022-12-07T17:05:06;101043.22;;;5.73;81.71
51603;BME280;37954;51.980;5.850;2022-12-07T17:09:18;101046.72;;;5.73;81.88
51603;BME280;37954;51.980;5.850;2022-12-07T17:13:32;101052.69;;;5.75;82.45
51603;BME280;37954;51.980;5.850;2022-12-07T17:18:02;101042.81;;;5.69;82.58
51603;BME280;37954;51.980;5.850;2022-12-07T17:22:13;101045.66;;;5.68;82.22
51603;BME280;37954;51.980;5.850;2022-12-07T17:26:26;101030.28;;;5.55;82.32
51603;BME280;37954;51.980;5.850;2022-12-07T17:30:45;101046.72;;;5.58;82.41
51603;BME280;37954;51.980;5.850;2022-12-07T17:34:57;101033.34;;;5.52;83.02
51603;BME280;37954;51.980;5.850;2022-12-07T17:39:11;101034.69;;;5.48;83.07
51603;BME280;37954;51.980;5.850;2022-12-07T17:43:22;101020.63;;;5.39;82.95
51603;BME280;37954;51.980;5.850;2022-12-07T17:47:35;101032.38;;;5.45;83.04
51603;BME280;37954;51.980;5.850;2022-12-07T17:51:47;101019.44;;;5.42;83.58
51603;BME280;37954;51.980;5.850;2022-12-07T17:56:17;100998.22;;;5.34;83.05
51603;BME280;37954;51.980;5.850;2022-12-07T18:00:39;100997.41;;;5.33;83.47
51603;BME280;37954;51.980;5.850;2022-12-07T18:04:52;101007.31;;;5.39;83.29
51603;BME280;37954;51.980;5.850;2022-12-07T18:09:03;101004.56;;;5.33;83.49
51603;BME280;37954;51.980;5.850;2022-12-07T18:13:15;101003.38;;;5.35;83.36
51603;BME280;37954;51.980;5.850;2022-12-07T18:17:46;101000.06;;;5.33;83.71
51603;BME280;37954;51.980;5.850;2022-12-07T18:21:58;100995.44;;;5.27;83.52
51603;BME280;37954;51.980;5.850;2022-12-07T18:26:10;100991.59;;;5.30;83.79
51603;BME280;37954;51.980;5.850;2022-12-07T18:30:22;100989.31;;;5.27;84.10
51603;BME280;37954;51.980;5.850;2022-12-07T18:34:53;100982.97;;;5.28;84.38
51603;BME280;37954;51.980;5.850;2022-12-07T18:39:05;100981.41;;;5.33;83.93
51603;BME280;37954;51.980;5.850;2022-12-07T18:43:17;100965.16;;;5.28;84.31
51603;BME280;37954;51.980;5.850;2022-12-07T18:47:29;100970.94;;;5.32;84.65
51603;BME280;37954;51.980;5.850;2022-12-07T18:51:41;100970.28;;;5.30;84.57
51603;BME280;37954;51.980;5.850;2022-12-07T18:56:01;100968.63;;;5.29;84.60
51603;BME280;37954;51.980;5.850;2022-12-07T19:00:13;100963.31;;;5.29;84.12
51603;BME280;37954;51.980;5.850;2022-12-07T19:04:25;100976.44;;;5.30;84.60
51603;BME280;37954;51.980;5.850;2022-12-07T19:08:36;100963.69;;;5.25;84.28
51603;BME280;37954;51.980;5.850;2022-12-07T19:12:48;100965.16;;;5.28;84.19
51603;BME280;37954;51.980;5.850;2022-12-07T19:17:03;100973.44;;;5.33;83.97
51603;BME280;37954;51.980;5.850;2022-12-07T19:21:17;100978.75;;;5.33;84.07
51603;BME280;37954;51.980;5.850;2022-12-07T19:25:29;100963.69;;;5.25;83.70
51603;BME280;37954;51.980;5.850;2022-12-07T19:29:41;100976.81;;;5.27;84.01
51603;BME280;37954;51.980;5.850;2022-12-07T19:33:53;100980.47;;;5.26;84.05
51603;BME280;37954;51.980;5.850;2022-12-07T19:38:05;100972.03;;;5.22;84.00
51603;BME280;37954;51.980;5.850;2022-12-07T19:42:17;100966.44;;;5.17;84.32
51603;BME280;37954;51.980;5.850;2022-12-07T19:46:29;100966.06;;;5.20;83.82
51603;BME280;37954;51.980;5.850;2022-12-07T19:50:41;100960.28;;;5.17;83.97
51603;BME280;37954;51.980;5.850;2022-12-07T19:54:52;100948.63;;;5.18;84.87
51603;BME280;37954;51.980;5.850;2022-12-07T19:59:05;100943.56;;;5.23;84.38
51603;BME280;37954;51.980;5.850;2022-12-07T20:03:18;100950.81;;;5.29;84.17
51603;BME280;37954;51.980;5.850;2022-12-07T20:07:29;100952.47;;;5.30;84.11
51603;BME280;37954;51.980;5.850;2022-12-07T20:11:42;100931.91;;;5.24;84.29
51603;BME280;37954;51.980;5.850;2022-12-07T20:16:12;100941.19;;;5.28;84.75
51603;BME280;37954;51.980;5.850;2022-12-07T20:20:30;100923.09;;;5.23;84.45
51603;BME280;37954;51.980;5.850;2022-12-07T20:24:42;100915.47;;;5.20;84.34
51603;BME280;37954;51.980;5.850;2022-12-07T20:28:54;100911.59;;;5.23;84.65
51603;BME280;37954;51.980;5.850;2022-12-07T20:33:05;100898.03;;;5.18;84.33
51603;BME280;37954;51.980;5.850;2022-12-07T20:37:17;100887.94;;;5.13;84.69
51603;BME280;37954;51.980;5.850;2022-12-07T20:41:28;100891.97;;;5.09;85.03
51603;BME280;37954;51.980;5.850;2022-12-07T20:45:59;100893.44;;;5.12;85.21
51603;BME280;37954;51.980;5.850;2022-12-07T20:50:11;100885.53;;;5.04;85.78
51603;BME280;37954;51.980;5.850;2022-12-07T20:54:23;100886.00;;;5.07;85.41
51603;BME280;37954;51.980;5.850;2022-12-07T20:58:35;100887.34;;;5.03;85.80
51603;BME280;37954;51.980;5.850;2022-12-07T21:02:46;100896.00;;;5.05;85.62
51603;BME280;37954;51.980;5.850;2022-12-07T21:06:58;100885.34;;;5.05;85.72
51603;BME280;37954;51.980;5.850;2022-12-07T21:11:10;100877.19;;;5.07;86.08
51603;BME280;37954;51.980;5.850;2022-12-07T21:15:22;100875.53;;;5.06;85.58
51603;BME280;37954;51.980;5.850;2022-12-07T21:19:33;100881.84;;;5.05;85.45
51603;BME280;37954;51.980;5.850;2022-12-07T21:23:46;100863.22;;;5.05;85.86
51603;BME280;37954;51.980;5.850;2022-12-07T21:27:59;100866.28;;;5.02;85.75
51603;BME280;37954;51.980;5.850;2022-12-07T21:32:12;100851.56;;;4.91;85.79
51603;BME280;37954;51.980;5.850;2022-12-07T21:36:25;100857.19;;;4.96;86.48
51603;BME280;37954;51.980;5.850;2022-12-07T21:40:37;100855.72;;;4.94;86.55
51603;BME280;37954;51.980;5.850;2022-12-07T21:44:48;100851.41;;;4.93;86.90
51603;BME280;37954;51.980;5.850;2022-12-07T21:49:05;100849.91;;;4.90;86.30
51603;BME280;37954;51.980;5.850;2022-12-07T21:53:18;100844.06;;;4.80;87.08
51603;BME280;37954;51.980;5.850;2022-12-07T21:57:31;100846.19;;;4.84;86.54
51603;BME280;37954;51.980;5.850;2022-12-07T22:01:43;100834.97;;;4.74;86.95
51603;BME280;37954;51.980;5.850;2022-12-07T22:06:00;100829.75;;;4.66;86.75
51603;BME280;37954;51.980;5.850;2022-12-07T22:10:12;100844.06;;;4.65;86.76
51603;BME280;37954;51.980;5.850;2022-12-07T22:14:38;100843.13;;;4.58;87.32
51603;BME280;37954;51.980;5.850;2022-12-07T22:19:08;100840.91;;;4.62;86.96
51603;BME280;37954;51.980;5.850;2022-12-07T22:23:20;100846.88;;;4.64;87.00
51603;BME280;37954;51.980;5.850;2022-12-07T22:27:31;100840.56;;;4.65;87.18
51603;BME280;37954;51.980;5.850;2022-12-07T22:31:43;100834.94;;;4.60;86.75
51603;BME280;37954;51.980;5.850;2022-12-07T22:36:03;100824.59;;;4.65;87.22
51603;BME280;37954;51.980;5.850;2022-12-07T22:40:15;100828.44;;;4.62;87.65
51603;BME280;37954;51.980;5.850;2022-12-07T22:44:27;100821.13;;;4.64;87.20
51603;BME280;37954;51.980;5.850;2022-12-07T22:48:38;100826.44;;;4.64;87.36
51603;BME280;37954;51.980;5.850;2022-12-07T22:52:52;100805.50;;;4.61;87.22
51603;BME280;37954;51.980;5.850;2022-12-07T22:57:05;100803.84;;;4.60;87.73
51603;BME280;37954;51.980;5.850;2022-12-07T23:01:18;100796.41;;;4.55;87.41
51603;BME280;37954;51.980;5.850;2022-12-07T23:05:30;100795.41;;;4.57;87.92
51603;BME280;37954;51.980;5.850;2022-12-07T23:09:41;100780.09;;;4.44;88.28
51603;BME280;37954;51.980;5.850;2022-12-07T23:13:53;100780.09;;;4.44;87.80
51603;BME280;37954;51.980;5.850;2022-12-07T23:18:04;100783.47;;;4.38;87.76
51603;BME280;37954;51.980;5.850;2022-12-07T23:22:16;100778.91;;;4.32;87.99
51603;BME280;37954;51.980;5.850;2022-12-07T23:26:28;100761.28;;;4.31;88.05
51603;BME280;37954;51.980;5.850;2022-12-07T23:30:39;100756.81;;;4.31;88.24
51603;BME280;37954;51.980;5.850;2022-12-07T23:34:51;100753.56;;;4.36;88.64
51603;BME280;37954;51.980;5.850;2022-12-07T23:39:03;100764.31;;;4.42;88.82
51603;BME280;37954;51.980;5.850;2022-12-07T23:43:14;100759.72;;;4.51;88.76
51603;BME280;37954;51.980;5.850;2022-12-07T23:47:26;100751.84;;;4.58;88.41
51603;BME280;37954;51.980;5.850;2022-12-07T23:51:37;100738.38;;;4.44;89.06
51603;BME280;37954;51.980;5.850;2022-12-07T23:55:49;100736.00;;;4.49;88.88
